createdAt,value
2023-03-01T00:02:01.043Z,-0.70
2023-03-01T00:07:03.550Z,-0.74
2023-03-01T00:18:55.028Z,-0.91
2023-03-01T00:23:58.157Z,-0.99
2023-03-01T00:29:00.986Z,-1.01
2023-03-01T00:34:05.862Z,-1.01
2023-03-01T00:39:13.122Z,-1.00
2023-03-01T00:44:15.658Z,-0.97
2023-03-01T00:49:18.183Z,-0.94
2023-03-01T00:54:20.650Z,-0.91
2023-03-01T00:59:23.141Z,-0.88
2023-03-01T01:04:25.653Z,-0.84
2023-03-01T01:09:28.134Z,-0.82
2023-03-01T01:14:30.821Z,-0.84
2023-03-01T01:19:35.699Z,-0.87
2023-03-01T01:24:38.278Z,-0.89
2023-03-01T01:29:40.944Z,-0.91
2023-03-01T01:34:43.564Z,-0.96
2023-03-01T01:39:46.060Z,-1.00
2023-03-01T01:44:49.048Z,-1.01
2023-03-01T01:49:55.794Z,-1.00
2023-03-01T01:55:06.353Z,-1.00
2023-03-01T02:00:13.708Z,-1.00
2023-03-01T02:05:25.820Z,-0.99
2023-03-01T02:10:29.916Z,-0.98
2023-03-01T02:15:34.703Z,-1.00
2023-03-01T02:21:04.877Z,-1.05
2023-03-01T02:26:14.785Z,-1.10
2023-03-01T02:31:22.649Z,-1.04
2023-03-01T02:36:35.157Z,-0.86
2023-03-01T02:41:39.348Z,-0.67
2023-03-01T02:46:47.649Z,-0.54
2023-03-01T02:51:55.943Z,-0.45
2023-03-01T02:56:58.658Z,-0.34
2023-03-01T03:02:01.939Z,-0.23
2023-03-01T03:07:04.432Z,-0.18
2023-03-01T03:12:07.007Z,-0.13
2023-03-01T03:17:09.622Z,-0.08
2023-03-01T03:22:13.352Z,0.00
2023-03-01T03:27:15.854Z,0.02
2023-03-01T03:32:18.385Z,0.03
2023-03-01T03:37:23.826Z,0.10
2023-03-01T03:42:26.319Z,0.16
2023-03-01T03:47:28.787Z,0.18
2023-03-01T03:52:31.277Z,0.21
2023-03-01T03:57:33.777Z,0.25
2023-03-01T04:02:36.342Z,0.26
2023-03-01T04:07:39.714Z,0.26
2023-03-01T04:12:44.053Z,0.30
2023-03-01T04:17:47.570Z,0.34
2023-03-01T04:22:50.042Z,0.36
2023-03-01T04:27:52.951Z,0.37
2023-03-01T04:32:55.610Z,0.38
2023-03-01T04:37:58.822Z,0.39
2023-03-01T04:43:02.231Z,0.43
2023-03-01T04:48:05.141Z,0.40
2023-03-01T04:53:07.669Z,0.35
2023-03-01T04:58:10.427Z,0.36
2023-03-01T05:03:13.077Z,0.44
2023-03-01T05:08:18.305Z,0.51
2023-03-01T05:13:21.942Z,0.50
2023-03-01T05:18:27.047Z,0.53
2023-03-01T05:23:29.616Z,0.55
2023-03-01T05:35:33.991Z,0.51
2023-03-01T05:40:36.641Z,0.49
2023-03-01T05:45:39.587Z,0.51
2023-03-01T05:50:44.387Z,0.61
2023-03-01T05:55:48.279Z,0.68
2023-03-01T06:00:52.043Z,0.71
2023-03-01T06:05:58.459Z,0.76
2023-03-01T06:11:01.111Z,0.80
2023-03-01T06:16:07.331Z,0.88
2023-03-01T06:21:10.011Z,0.99
2023-03-01T06:33:25.212Z,1.14
2023-03-01T06:38:27.749Z,1.28
2023-03-01T06:43:30.416Z,1.41
2023-03-01T06:48:33.218Z,1.52
2023-03-01T06:53:36.253Z,1.57
2023-03-01T06:58:38.819Z,1.58
2023-03-01T07:03:41.337Z,1.58
2023-03-01T07:08:44.126Z,1.68
2023-03-01T07:13:46.628Z,1.70
2023-03-01T07:18:49.169Z,1.73
2023-03-01T07:30:45.843Z,1.94
2023-03-01T07:35:48.389Z,2.00
2023-03-01T07:40:51.034Z,2.15
2023-03-01T07:45:53.569Z,2.17
2023-03-01T07:50:59.688Z,2.28
2023-03-01T07:56:05.379Z,2.52
2023-03-01T08:01:11.045Z,2.76
2023-03-01T08:06:15.805Z,2.96
2023-03-01T08:11:18.633Z,3.25
2023-03-01T08:16:21.189Z,3.46
2023-03-01T08:21:23.724Z,3.51
2023-03-01T08:26:26.186Z,3.58
2023-03-01T08:31:36.501Z,3.64
2023-03-01T08:36:42.406Z,3.59
2023-03-01T08:41:47.132Z,3.63
2023-03-01T08:46:52.267Z,3.69
2023-03-01T08:51:55.287Z,3.73
2023-03-01T08:56:59.849Z,3.86
2023-03-01T09:02:02.423Z,3.98
2023-03-01T09:07:05.365Z,4.13
2023-03-01T09:12:07.884Z,4.17
2023-03-01T09:17:10.588Z,4.39
2023-03-01T09:22:13.129Z,4.67
2023-03-01T09:27:15.702Z,5.03
2023-03-01T09:32:18.371Z,5.60
2023-03-01T09:37:21.546Z,6.02
2023-03-01T09:42:24.598Z,6.29
2023-03-01T09:47:33.399Z,6.49
2023-03-01T09:52:39.914Z,6.72
2023-03-01T09:57:51.415Z,6.93
2023-03-01T10:03:01.038Z,7.01
2023-03-01T10:08:03.548Z,7.13
2023-03-01T10:13:15.722Z,7.48
2023-03-01T10:18:22.177Z,7.71
2023-03-01T10:23:26.169Z,7.74
2023-03-01T10:28:51.806Z,7.59
2023-03-01T10:33:56.343Z,7.53
2023-03-01T10:38:58.989Z,7.37
2023-03-01T10:44:01.704Z,7.36
2023-03-01T10:49:07.124Z,7.35
2023-03-01T10:54:15.447Z,7.36
2023-03-01T10:59:26.141Z,7.41
2023-03-01T11:04:28.735Z,7.45
2023-03-01T11:09:39.279Z,7.55
2023-03-01T11:14:57.047Z,7.61
2023-03-01T11:20:09.065Z,7.56
2023-03-01T11:25:15.313Z,7.51
2023-03-01T11:30:31.768Z,7.58
2023-03-01T11:35:38.973Z,7.67
2023-03-01T11:40:48.595Z,7.82
2023-03-01T11:45:51.095Z,7.98
2023-03-01T11:50:57.603Z,8.18
2023-03-01T11:56:05.961Z,8.31
2023-03-01T12:01:09.495Z,8.48
2023-03-01T12:06:15.881Z,8.74
2023-03-01T12:11:23.861Z,8.78
2023-03-01T12:16:38.804Z,8.78
2023-03-01T12:21:50.210Z,8.95
2023-03-01T12:27:01.160Z,9.05
2023-03-01T12:32:12.105Z,9.03
2023-03-01T12:37:26.086Z,9.00
2023-03-01T12:42:36.105Z,8.93
2023-03-01T12:47:50.669Z,9.00
2023-03-01T12:52:58.446Z,9.01
2023-03-01T12:58:08.530Z,8.91
2023-03-01T13:03:16.897Z,8.93
2023-03-01T13:08:25.000Z,9.00
2023-03-01T13:13:29.396Z,9.13
2023-03-01T13:18:33.346Z,9.11
2023-03-01T13:23:39.192Z,9.05
2023-03-01T13:28:45.693Z,9.08
2023-03-01T13:33:52.632Z,9.09
2023-03-01T13:38:55.907Z,9.12
2023-03-01T13:43:58.699Z,9.10
2023-03-01T13:49:01.464Z,9.02
2023-03-01T13:54:04.853Z,9.00
2023-03-01T13:59:20.993Z,9.00
2023-03-01T14:04:28.763Z,8.99
2023-03-01T14:09:34.300Z,8.91
2023-03-01T14:14:53.012Z,8.87
2023-03-01T14:19:59.394Z,8.82
2023-03-01T14:25:17.382Z,8.71
2023-03-01T14:30:23.856Z,8.58
2023-03-01T14:35:30.455Z,8.62
2023-03-01T14:40:36.076Z,9.01
2023-03-01T14:45:38.738Z,9.55
2023-03-01T14:50:44.244Z,10.06
2023-03-01T14:55:51.491Z,10.44
2023-03-01T15:01:01.524Z,10.73
2023-03-01T15:06:06.167Z,10.71
2023-03-01T15:11:14.855Z,10.14
2023-03-01T15:16:24.036Z,9.52
2023-03-01T15:21:35.255Z,8.81
2023-03-01T15:26:47.849Z,8.25
2023-03-01T15:32:27.058Z,7.80
2023-03-01T15:37:46.173Z,7.33
2023-03-01T15:42:48.759Z,6.94
2023-03-01T15:48:05.220Z,6.61
2023-03-01T15:53:12.923Z,6.31
2023-03-01T15:58:26.790Z,6.04
2023-03-01T16:03:30.752Z,5.76
2023-03-01T16:08:33.461Z,5.50
2023-03-01T16:13:36.623Z,5.24
2023-03-01T16:18:40.096Z,4.99
2023-03-01T16:23:44.324Z,4.72
2023-03-01T16:28:47.043Z,4.45
2023-03-01T16:33:53.517Z,4.19
2023-03-01T16:38:59.807Z,3.95
2023-03-01T16:44:02.343Z,3.73
2023-03-01T16:49:04.884Z,3.58
2023-03-01T16:54:07.436Z,3.42
2023-03-01T16:59:10.691Z,3.30
2023-03-01T17:04:13.920Z,3.20
2023-03-01T17:09:18.064Z,3.10
2023-03-01T17:14:21.242Z,3.01
2023-03-01T17:19:23.894Z,2.92
2023-03-01T17:24:27.409Z,2.83
2023-03-01T17:29:30.750Z,2.77
2023-03-01T17:34:34.078Z,2.69
2023-03-01T17:39:36.712Z,2.57
2023-03-01T17:44:39.302Z,2.43
2023-03-01T17:49:41.813Z,2.25
2023-03-01T17:54:44.323Z,2.11
2023-03-01T17:59:46.868Z,2.02
2023-03-01T18:04:49.644Z,1.96
2023-03-01T18:09:52.358Z,1.93
2023-03-01T18:14:55.311Z,1.95
2023-03-01T18:19:58.885Z,2.02
2023-03-01T18:25:01.490Z,2.09
2023-03-01T18:30:10.614Z,2.13
2023-03-01T18:35:13.155Z,2.22
2023-03-01T18:40:16.012Z,2.33
2023-03-01T18:45:19.301Z,2.40
2023-03-01T18:50:21.862Z,2.41
2023-03-01T18:55:24.569Z,2.41
2023-03-01T19:00:27.219Z,2.48
2023-03-01T19:05:30.812Z,2.58
2023-03-01T19:10:33.496Z,2.68
2023-03-01T19:15:36.119Z,2.74
2023-03-01T19:20:39.622Z,2.82
2023-03-01T19:25:43.043Z,2.93
2023-03-01T19:30:45.891Z,3.01
2023-03-01T19:35:49.097Z,3.07
2023-03-01T19:40:51.994Z,3.16
2023-03-01T19:45:55.652Z,3.27
2023-03-01T19:50:58.579Z,3.36
2023-03-01T19:56:02.597Z,3.40
2023-03-01T20:01:05.555Z,3.43
2023-03-01T20:06:11.282Z,3.46
2023-03-01T20:11:15.817Z,3.49
2023-03-01T20:16:19.961Z,3.52
2023-03-01T20:21:24.842Z,3.54
2023-03-01T20:26:28.467Z,3.58
2023-03-01T20:31:31.375Z,3.61
2023-03-01T20:36:35.092Z,3.57
2023-03-01T20:41:39.236Z,3.53
2023-03-01T20:46:42.030Z,3.48
2023-03-01T20:51:44.700Z,3.40
2023-03-01T20:56:47.630Z,3.32
2023-03-01T21:01:50.583Z,3.23
2023-03-01T21:06:53.106Z,3.14
2023-03-01T21:11:55.742Z,3.10
2023-03-01T21:16:58.233Z,3.03
2023-03-01T21:22:00.761Z,2.93
2023-03-01T21:27:06.496Z,2.86
2023-03-01T21:32:10.514Z,2.79
2023-03-01T21:37:13.174Z,2.78
2023-03-01T21:42:15.671Z,2.75
2023-03-01T21:47:18.187Z,2.77
2023-03-01T21:52:20.758Z,2.79
2023-03-01T21:57:23.313Z,2.73
2023-03-01T22:02:25.797Z,2.66
2023-03-01T22:07:30.346Z,2.63
2023-03-01T22:12:33.232Z,2.58
2023-03-01T22:17:35.868Z,2.50
2023-03-01T22:22:38.443Z,2.46
2023-03-01T22:27:41.062Z,2.45
2023-03-01T22:32:43.701Z,2.40
2023-03-01T22:37:47.423Z,2.43
2023-03-01T22:42:50.043Z,2.45
2023-03-01T22:47:52.610Z,2.49
2023-03-01T22:52:56.250Z,2.51
2023-03-01T22:57:58.782Z,2.49
2023-03-01T23:03:01.832Z,2.49
2023-03-01T23:08:04.790Z,2.49
2023-03-01T23:13:07.316Z,2.48
2023-03-01T23:18:09.796Z,2.45
2023-03-01T23:23:12.267Z,2.42
2023-03-01T23:28:14.845Z,2.40
2023-03-01T23:33:17.322Z,2.39
2023-03-01T23:38:20.658Z,2.44
2023-03-01T23:43:23.279Z,2.47
2023-03-01T23:48:25.762Z,2.49
2023-03-01T23:53:28.333Z,2.48
2023-03-01T23:58:31.005Z,2.49
